createdAt,value
2019-01-08T00:01:40.193Z,7.60
2019-01-08T00:04:08.498Z,7.60
2019-01-08T00:06:41.128Z,7.60
2019-01-08T00:09:08.672Z,7.60
2019-01-08T00:11:37.111Z,7.50
2019-01-08T00:14:09.493Z,7.50
2019-01-08T00:16:37.686Z,7.50
2019-01-08T00:19:06.862Z,7.50
2019-01-08T00:21:34.838Z,7.50
2019-01-08T00:24:05.509Z,7.40
2019-01-08T00:26:46.152Z,7.50
2019-01-08T00:32:44.758Z,7.40
2019-01-08T00:35:13.249Z,7.40
2019-01-08T00:37:59.075Z,7.40
2019-01-08T00:44:07.015Z,7.40
2019-01-08T00:46:48.475Z,7.40
2019-01-08T01:14:47.121Z,7.40
2019-01-08T01:17:51.306Z,7.40
2019-01-08T01:20:19.632Z,7.30
2019-01-08T01:22:47.649Z,7.30
2019-01-08T01:25:16.086Z,7.20
2019-01-08T01:27:43.904Z,7.20
2019-01-08T01:30:15.147Z,7.20
2019-01-08T01:32:43.452Z,7.20
2019-01-08T01:35:58.956Z,7.20
2019-01-08T01:41:24.298Z,7.20
2019-01-08T01:43:59.220Z,7.20
2019-01-08T01:46:29.559Z,7.20
2019-01-08T01:48:57.426Z,7.20
2019-01-08T01:51:25.595Z,7.20
2019-01-08T01:53:53.924Z,7.10
2019-01-08T01:56:22.465Z,7.10
2019-01-08T01:58:52.419Z,7.10
2019-01-08T02:01:20.519Z,7.00
2019-01-08T02:03:48.829Z,7.00
2019-01-08T02:06:20.553Z,6.90
2019-01-08T02:08:48.973Z,6.90
2019-01-08T02:11:20.323Z,6.80
2019-01-08T02:13:48.319Z,6.80
2019-01-08T02:16:17.900Z,6.80
2019-01-08T02:18:46.333Z,6.80
2019-01-08T02:21:15.561Z,6.70
2019-01-08T02:23:43.591Z,6.80
2019-01-08T02:26:12.109Z,6.80
2019-01-08T02:28:40.444Z,6.80
2019-01-08T02:31:11.852Z,6.70
2019-01-08T02:33:48.919Z,6.70
2019-01-08T02:36:17.203Z,6.70
2019-01-08T02:38:45.076Z,6.60
2019-01-08T02:41:14.926Z,6.60
2019-01-08T02:43:50.083Z,6.60
2019-01-08T02:46:21.643Z,6.60
2019-01-08T02:48:49.625Z,6.50
2019-01-08T02:51:17.531Z,6.50
2019-01-08T02:53:46.040Z,6.50
2019-01-08T02:56:24.405Z,6.50
2019-01-08T02:58:52.824Z,6.40
2019-01-08T03:01:21.102Z,6.40
2019-01-08T03:03:49.146Z,6.40
2019-01-08T03:06:20.291Z,6.40
2019-01-08T03:08:48.622Z,6.40
2019-01-08T03:11:20.716Z,6.40
2019-01-08T03:13:48.423Z,6.40
2019-01-08T03:16:16.832Z,6.40
2019-01-08T03:18:44.844Z,6.40
2019-01-08T03:21:13.651Z,6.40
2019-01-08T03:23:41.577Z,6.50
2019-01-08T03:26:10.826Z,6.50
2019-01-08T03:28:39.057Z,6.40
2019-01-08T03:31:08.567Z,6.50
2019-01-08T03:33:37.242Z,6.50
2019-01-08T03:36:07.538Z,6.50
2019-01-08T03:38:38.930Z,6.50
2019-01-08T03:41:14.322Z,6.50
2019-01-08T03:43:43.881Z,6.50
2019-01-08T03:49:39.329Z,6.50
2019-01-08T03:52:07.548Z,6.50
2019-01-08T03:54:35.574Z,6.50
2019-01-08T03:57:03.927Z,6.50
2019-01-08T03:59:32.209Z,6.50
2019-01-08T04:02:00.187Z,6.60
2019-01-08T04:04:27.999Z,6.60
2019-01-08T04:06:56.505Z,6.60
2019-01-08T04:12:33.876Z,6.70
2019-01-08T04:15:02.007Z,6.70
2019-01-08T04:17:29.912Z,6.60
2019-01-08T04:20:09.340Z,6.50
2019-01-08T04:22:48.969Z,6.50
2019-01-08T04:25:16.995Z,6.40
2019-01-08T04:27:45.043Z,6.40
2019-01-08T04:30:13.324Z,6.40
2019-01-08T04:32:41.806Z,6.40
2019-01-08T04:35:09.918Z,6.40
2019-01-08T04:37:40.495Z,6.40
2019-01-08T04:40:08.440Z,6.40
2019-01-08T04:42:36.578Z,6.40
2019-01-08T04:45:07.386Z,6.40
2019-01-08T04:47:35.611Z,6.40
2019-01-08T04:50:09.537Z,6.40
2019-01-08T04:52:37.744Z,6.40
2019-01-08T04:55:09.258Z,6.40
2019-01-08T04:57:37.696Z,6.50
2019-01-08T05:00:10.266Z,6.50
2019-01-08T05:02:39.146Z,6.50
2019-01-08T05:05:10.347Z,6.40
2019-01-08T05:07:46.543Z,6.40
2019-01-08T05:10:12.406Z,6.40
2019-01-08T05:12:42.611Z,6.40
2019-01-08T05:15:13.348Z,6.40
2019-01-08T05:17:41.266Z,6.40
2019-01-08T05:26:18.829Z,6.40
2019-01-08T05:28:57.031Z,6.40
2019-01-08T05:31:28.056Z,6.40
2019-01-08T05:33:57.682Z,6.40
2019-01-08T05:36:25.733Z,6.40
2019-01-08T05:39:00.025Z,6.40
2019-01-08T05:41:37.473Z,6.40
2019-01-08T05:44:08.646Z,6.40
2019-01-08T05:46:41.048Z,6.40
2019-01-08T05:49:09.276Z,6.40
2019-01-08T05:51:40.532Z,6.50
2019-01-08T05:57:44.086Z,6.50
2019-01-08T06:00:19.786Z,6.50
2019-01-08T06:03:00.590Z,6.50
2019-01-08T06:05:40.547Z,6.50
2019-01-08T06:11:54.675Z,6.60
2019-01-08T06:14:29.606Z,6.60
2019-01-08T06:17:22.107Z,6.60
2019-01-08T06:23:49.605Z,6.70
2019-01-08T06:29:31.316Z,6.70
2019-01-08T06:32:09.498Z,6.80
2019-01-08T06:34:55.164Z,6.80
2019-01-08T06:37:44.233Z,6.80
2019-01-08T06:40:14.613Z,6.70
2019-01-08T06:54:38.793Z,6.50
2019-01-08T06:57:06.895Z,6.50
2019-01-08T06:59:35.011Z,6.40
2019-01-08T07:02:03.179Z,6.40
2019-01-08T07:04:31.058Z,6.40
2019-01-08T07:06:59.362Z,6.40
2019-01-08T07:09:30.572Z,6.40
2019-01-08T07:11:58.269Z,6.30
2019-01-08T07:14:26.266Z,6.30
2019-01-08T07:16:54.289Z,6.30
2019-01-08T07:19:22.626Z,6.30
2019-01-08T07:21:50.628Z,6.30
2019-01-08T07:24:21.238Z,6.30
2019-01-08T07:26:51.252Z,6.40
2019-01-08T07:29:19.042Z,6.40
2019-01-08T07:31:49.707Z,6.30
2019-01-08T07:34:20.208Z,6.40
2019-01-08T07:36:47.957Z,6.40
2019-01-08T07:39:15.775Z,6.40
2019-01-08T07:41:43.801Z,6.40
2019-01-08T07:44:11.452Z,6.40
2019-01-08T07:46:41.071Z,6.40
2019-01-08T07:49:09.016Z,6.40
2019-01-08T07:51:38.891Z,6.40
2019-01-08T07:54:06.812Z,6.40
2019-01-08T07:56:37.096Z,6.40
2019-01-08T07:59:07.669Z,6.40
2019-01-08T08:01:35.644Z,6.50
2019-01-08T08:04:11.007Z,6.50
2019-01-08T08:06:39.373Z,6.50
2019-01-08T08:09:07.242Z,6.50
2019-01-08T08:11:37.436Z,6.50
2019-01-08T08:14:05.365Z,6.50
2019-01-08T08:16:33.362Z,6.50
2019-01-08T08:19:00.849Z,6.50
2019-01-08T08:21:29.024Z,6.50
2019-01-08T08:23:56.917Z,6.60
2019-01-08T08:26:24.973Z,6.60
2019-01-08T08:28:52.763Z,6.60
2019-01-08T08:31:20.675Z,6.60
2019-01-08T08:33:48.594Z,6.60
2019-01-08T08:36:16.567Z,6.60
2019-01-08T08:38:45.275Z,6.60
2019-01-08T08:41:13.232Z,6.60
2019-01-08T08:43:41.764Z,6.60
2019-01-08T08:46:09.266Z,6.60
2019-01-08T08:48:37.255Z,6.60
2019-01-08T08:51:04.831Z,6.60
2019-01-08T08:53:34.419Z,6.60
2019-01-08T08:56:03.201Z,6.60
2019-01-08T08:58:31.060Z,6.60
2019-01-08T09:01:07.010Z,6.60
2019-01-08T09:03:35.035Z,6.60
2019-01-08T09:06:04.908Z,6.50
2019-01-08T09:08:32.955Z,6.50
2019-01-08T09:11:05.149Z,6.50
2019-01-08T09:13:32.831Z,6.50
2019-01-08T09:16:00.692Z,6.60
2019-01-08T09:18:28.845Z,6.60
2019-01-08T09:20:58.972Z,6.60
2019-01-08T09:23:26.908Z,6.60
2019-01-08T09:26:03.129Z,6.60
2019-01-08T09:28:31.270Z,6.60
2019-01-08T09:31:04.539Z,6.60
2019-01-08T09:33:32.412Z,6.60
2019-01-08T09:36:01.494Z,6.70
2019-01-08T09:38:29.436Z,6.70
2019-01-08T09:40:58.744Z,6.70
2019-01-08T09:43:27.894Z,6.70
2019-01-08T09:45:55.894Z,6.90
2019-01-08T09:48:23.686Z,7.00
2019-01-08T09:50:51.619Z,7.10
2019-01-08T09:53:22.112Z,7.00
2019-01-08T09:55:50.054Z,7.00
2019-01-08T09:58:17.615Z,7.00
2019-01-08T10:00:45.929Z,7.00
2019-01-08T10:03:16.075Z,7.00
2019-01-08T10:05:43.692Z,7.00
2019-01-08T10:08:11.448Z,7.00
2019-01-08T10:14:09.370Z,7.10
2019-01-08T10:16:37.393Z,7.10
2019-01-08T10:19:04.890Z,7.10
2019-01-08T10:21:33.717Z,7.10
2019-01-08T10:24:04.685Z,7.10
2019-01-08T10:26:32.417Z,7.10
2019-01-08T10:28:59.938Z,7.30
2019-01-08T10:31:32.519Z,7.40
2019-01-08T10:33:58.131Z,7.40
2019-01-08T10:36:27.768Z,7.30
2019-01-08T10:38:56.070Z,7.20
2019-01-08T10:41:26.196Z,7.20
2019-01-08T10:43:54.927Z,7.10
2019-01-08T10:46:23.083Z,7.20
2019-01-08T10:48:52.238Z,7.30
2019-01-08T10:51:20.490Z,7.40
2019-01-08T10:53:49.563Z,7.40
2019-01-08T10:56:17.353Z,7.40
2019-01-08T10:58:45.281Z,7.40
2019-01-08T11:01:15.523Z,7.40
2019-01-08T11:03:43.510Z,7.40
2019-01-08T11:06:17.465Z,7.40
2019-01-08T11:08:51.986Z,7.30
2019-01-08T11:11:20.234Z,7.40
2019-01-08T11:13:52.640Z,7.60
2019-01-08T11:16:20.236Z,7.70
2019-01-08T11:18:48.614Z,7.70
2019-01-08T11:21:16.442Z,7.70
2019-01-08T11:23:44.582Z,7.80
2019-01-08T11:26:13.065Z,7.80
2019-01-08T11:28:43.202Z,7.60
2019-01-08T11:31:11.070Z,7.50
2019-01-08T11:33:39.652Z,7.40
2019-01-08T11:36:07.591Z,7.40
2019-01-08T11:47:50.895Z,7.30
2019-01-08T11:50:18.556Z,7.20
2019-01-08T11:52:47.877Z,7.30
2019-01-08T11:55:15.950Z,7.30
2019-01-08T11:57:43.871Z,7.30
2019-01-08T12:00:13.421Z,7.30
2019-01-08T12:02:47.803Z,7.20
2019-01-08T12:05:10.970Z,7.10
2019-01-08T12:07:39.150Z,7.10
2019-01-08T12:10:10.163Z,7.10
2019-01-08T12:12:37.838Z,7.10
2019-01-08T12:15:06.617Z,7.10
2019-01-08T12:17:35.000Z,7.10
2019-01-08T12:20:03.791Z,7.10
2019-01-08T12:22:31.327Z,7.10
2019-01-08T12:24:58.843Z,7.00
2019-01-08T12:27:34.604Z,7.00
2019-01-08T12:30:02.341Z,6.90
2019-01-08T12:32:30.440Z,6.90
2019-01-08T12:34:58.260Z,6.80
2019-01-08T12:37:26.131Z,6.90
2019-01-08T12:39:56.585Z,6.90
2019-01-08T12:42:24.599Z,6.90
2019-01-08T12:44:54.737Z,6.90
2019-01-08T12:47:23.246Z,6.90
2019-01-08T12:49:50.968Z,6.90
2019-01-08T12:52:18.592Z,7.00
2019-01-08T12:54:46.634Z,7.00
2019-01-08T12:57:14.599Z,6.90
2019-01-08T12:59:42.757Z,6.90
2019-01-08T13:02:14.903Z,6.90
2019-01-08T13:04:40.797Z,6.80
2019-01-08T13:10:43.992Z,6.60
2019-01-08T13:13:11.914Z,6.40
2019-01-08T13:15:40.212Z,6.30
2019-01-08T13:18:08.302Z,6.30
2019-01-08T13:20:36.156Z,6.30
2019-01-08T13:23:04.126Z,6.20
2019-01-08T13:25:31.891Z,6.30
2019-01-08T13:27:59.896Z,6.30
2019-01-08T13:30:27.817Z,6.30
2019-01-08T13:32:55.767Z,6.30
2019-01-08T13:35:23.302Z,6.30
2019-01-08T13:37:50.976Z,6.30
2019-01-08T13:40:18.892Z,6.30
2019-01-08T13:46:48.417Z,6.20
2019-01-08T13:49:19.703Z,6.20
2019-01-08T13:51:47.746Z,6.10
2019-01-08T13:54:16.974Z,6.20
2019-01-08T13:56:44.621Z,6.20
2019-01-08T13:59:12.645Z,6.20
2019-01-08T14:01:40.258Z,6.20
2019-01-08T14:04:08.250Z,6.20
2019-01-08T14:06:36.535Z,6.20
2019-01-08T14:09:06.094Z,6.10
2019-01-08T14:11:34.108Z,6.10
2019-01-08T14:14:19.795Z,6.10
2019-01-08T14:17:09.642Z,6.10
2019-01-08T14:19:37.464Z,6.10
2019-01-08T14:22:05.540Z,6.10
2019-01-08T14:24:50.229Z,6.10
2019-01-08T14:27:17.808Z,6.10
2019-01-08T14:29:45.918Z,6.10
2019-01-08T14:32:14.065Z,6.10
2019-01-08T14:34:42.499Z,6.10
2019-01-08T14:37:10.545Z,6.00
2019-01-08T14:39:39.028Z,6.00
2019-01-08T14:42:06.783Z,6.00
2019-01-08T14:44:35.593Z,6.00
2019-01-08T14:47:03.160Z,5.90
2019-01-08T14:49:31.623Z,5.90
2019-01-08T14:52:00.033Z,5.80
2019-01-08T14:54:28.178Z,5.80
2019-01-08T14:56:56.327Z,5.80
2019-01-08T14:59:26.935Z,5.70
2019-01-08T15:01:54.485Z,5.70
2019-01-08T15:04:23.433Z,5.70
2019-01-08T15:06:54.159Z,5.60
2019-01-08T15:09:25.125Z,5.60
2019-01-08T15:11:53.693Z,5.60
2019-01-08T15:14:22.664Z,5.60
2019-01-08T15:16:58.149Z,5.60
2019-01-08T15:19:28.841Z,5.50
2019-01-08T15:21:56.934Z,5.50
2019-01-08T15:24:24.803Z,5.40
2019-01-08T15:26:58.529Z,5.30
2019-01-08T15:29:28.874Z,5.30
2019-01-08T15:31:56.457Z,5.20
2019-01-08T15:34:24.946Z,5.20
2019-01-08T15:36:57.758Z,5.20
2019-01-08T15:39:28.914Z,5.10
2019-01-08T15:41:58.802Z,5.10
2019-01-08T15:44:33.142Z,5.10
2019-01-08T15:47:03.002Z,5.10
2019-01-08T15:49:31.379Z,5.10
2019-01-08T15:52:03.477Z,5.10
2019-01-08T15:54:31.836Z,5.10
2019-01-08T15:57:13.576Z,5.10
2019-01-08T15:59:42.341Z,5.00
2019-01-08T16:02:14.212Z,5.00
2019-01-08T16:04:42.332Z,5.10
2019-01-08T16:07:16.927Z,5.10
2019-01-08T16:09:50.222Z,5.00
2019-01-08T16:12:21.211Z,5.10
2019-01-08T16:14:50.650Z,5.00
2019-01-08T16:17:21.487Z,5.10
2019-01-08T16:19:49.416Z,5.10
2019-01-08T16:25:05.236Z,5.10
2019-01-08T16:27:36.251Z,5.10
2019-01-08T16:30:05.088Z,5.10
2019-01-08T16:32:33.505Z,5.10
2019-01-08T16:35:10.889Z,5.00
2019-01-08T16:37:44.443Z,5.00
2019-01-08T16:40:18.918Z,5.00
2019-01-08T16:42:47.188Z,5.00
2019-01-08T16:45:15.438Z,4.90
2019-01-08T16:47:47.392Z,4.90
2019-01-08T16:50:17.156Z,4.90
2019-01-08T16:52:50.633Z,4.90
2019-01-08T16:55:44.265Z,4.90
2019-01-08T16:58:17.586Z,4.90
2019-01-08T17:00:57.938Z,4.90
2019-01-08T17:04:53.029Z,4.80
2019-01-08T17:07:53.950Z,4.80
2019-01-08T17:10:38.575Z,4.80
2019-01-08T17:13:27.325Z,4.80
2019-01-08T18:15:15.898Z,4.70
2019-01-08T18:17:45.394Z,4.70
2019-01-08T18:20:20.974Z,4.60
2019-01-08T18:22:48.901Z,4.50
2019-01-08T18:25:17.228Z,4.50
2019-01-08T18:27:47.701Z,4.50
2019-01-08T18:30:16.662Z,4.50
2019-01-08T18:32:54.463Z,4.50
2019-01-08T18:35:26.064Z,4.50
2019-01-08T18:37:55.563Z,4.50
2019-01-08T18:40:25.435Z,4.60
2019-01-08T18:42:55.584Z,4.60
2019-01-08T18:45:23.816Z,4.60
2019-01-08T18:47:54.015Z,4.70
2019-01-08T18:50:24.303Z,4.70
2019-01-08T18:52:52.485Z,4.70
2019-01-08T18:55:25.244Z,4.70
2019-01-08T18:57:54.033Z,4.70
2019-01-08T19:00:22.971Z,4.70
2019-01-08T19:03:01.809Z,4.70
2019-01-08T19:05:34.523Z,4.70
2019-01-08T19:33:34.747Z,4.50
2019-01-08T19:36:50.446Z,4.50
2019-01-08T19:43:47.047Z,4.60
2019-01-08T19:46:31.784Z,4.60
2019-01-08T19:49:26.340Z,4.60
2019-01-08T19:57:03.435Z,4.40
2019-01-08T19:59:55.656Z,4.30
2019-01-08T20:05:53.462Z,4.10
2019-01-08T20:09:03.167Z,4.10
2019-01-08T20:32:57.772Z,4.00
2019-01-08T20:35:52.612Z,4.00
2019-01-08T20:41:39.460Z,4.10
2019-01-08T20:44:10.617Z,4.10
2019-01-08T20:50:50.037Z,4.20
2019-01-08T20:53:53.607Z,4.20
2019-01-08T20:57:23.630Z,4.20
2019-01-08T20:59:49.562Z,4.20
2019-01-08T21:06:51.049Z,4.20
2019-01-08T21:12:54.945Z,4.30
2019-01-08T21:23:27.061Z,4.20
2019-01-08T21:29:23.682Z,4.20
2019-01-08T21:31:51.805Z,4.20
2019-01-08T21:34:19.987Z,4.30
2019-01-08T21:36:48.908Z,4.20
2019-01-08T21:39:17.928Z,4.20
2019-01-08T21:41:46.061Z,4.20
2019-01-08T21:44:16.339Z,4.20
2019-01-08T21:46:47.053Z,4.20
2019-01-08T21:49:15.333Z,4.20
2019-01-08T21:51:43.044Z,4.20
2019-01-08T21:54:14.055Z,4.30
2019-01-08T21:59:52.126Z,4.30
2019-01-08T22:02:22.420Z,4.30
2019-01-08T22:04:53.154Z,4.30
2019-01-08T22:07:19.743Z,4.20
2019-01-08T22:09:48.078Z,4.20
2019-01-08T22:12:16.312Z,4.20
2019-01-08T22:14:44.307Z,4.20
2019-01-08T22:17:12.955Z,4.20
2019-01-08T22:20:34.542Z,4.20
2019-01-08T22:27:02.583Z,4.10
2019-01-08T22:29:30.163Z,4.10
2019-01-08T22:31:57.776Z,4.10
2019-01-08T22:34:25.818Z,4.00
2019-01-08T22:36:54.409Z,4.00
2019-01-08T22:39:22.976Z,4.00
2019-01-08T22:41:51.286Z,4.00
2019-01-08T22:44:19.168Z,4.00
2019-01-08T22:46:47.267Z,3.90
2019-01-08T22:49:14.916Z,3.90
2019-01-08T22:51:43.112Z,3.90
2019-01-08T22:54:11.049Z,3.90
2019-01-08T22:56:42.420Z,3.90
2019-01-08T22:59:10.496Z,3.80
2019-01-08T23:01:43.382Z,3.90
2019-01-08T23:04:14.800Z,3.90
2019-01-08T23:06:43.500Z,3.90
2019-01-08T23:09:11.512Z,3.90
2019-01-08T23:11:45.156Z,3.90
2019-01-08T23:14:13.223Z,3.90
2019-01-08T23:16:40.966Z,3.90
2019-01-08T23:19:12.276Z,3.90
2019-01-08T23:21:40.556Z,3.90
2019-01-08T23:24:08.705Z,3.90
2019-01-08T23:26:36.611Z,4.00
2019-01-08T23:29:07.469Z,3.90
2019-01-08T23:31:35.592Z,3.90
2019-01-08T23:34:03.688Z,3.90
2019-01-08T23:36:32.015Z,3.90
2019-01-08T23:39:00.379Z,3.90
2019-01-08T23:41:28.096Z,3.90
2019-01-08T23:43:56.302Z,3.90
2019-01-08T23:46:24.572Z,3.90
2019-01-08T23:48:52.690Z,3.80
2019-01-08T23:51:20.651Z,3.80
2019-01-08T23:53:50.270Z,3.80
2019-01-08T23:56:18.027Z,3.80
2019-01-08T23:58:46.203Z,3.80
